createdAt,value
2018-07-13T00:00:51.254Z,79.00
2018-07-13T00:02:55.273Z,79.90
2018-07-13T00:04:59.540Z,80.30
2018-07-13T00:07:03.462Z,80.40
2018-07-13T00:09:10.148Z,80.50
2018-07-13T00:11:15.549Z,80.80
2018-07-13T00:13:20.236Z,81.30
2018-07-13T00:15:26.563Z,81.60
2018-07-13T00:17:30.470Z,82.20
2018-07-13T00:19:34.441Z,82.60
2018-07-13T00:21:38.438Z,82.50
2018-07-13T00:23:44.335Z,82.70
2018-07-13T00:25:48.315Z,83.10
2018-07-13T00:27:52.218Z,83.40
2018-07-13T00:29:56.494Z,83.20
2018-07-13T00:32:01.558Z,83.30
2018-07-13T00:34:05.659Z,83.40
2018-07-13T00:36:11.063Z,83.40
2018-07-13T00:38:15.890Z,83.40
2018-07-13T00:40:19.882Z,83.40
2018-07-13T00:44:28.336Z,82.80
2018-07-13T00:46:32.593Z,82.70
2018-07-13T00:48:37.183Z,82.60
2018-07-13T00:50:41.525Z,82.60
2018-07-13T00:52:47.023Z,82.60
2018-07-13T00:54:51.198Z,82.40
2018-07-13T00:56:55.106Z,82.30
2018-07-13T00:58:59.511Z,82.10
2018-07-13T01:01:03.417Z,81.70
2018-07-13T01:03:07.358Z,80.80
2018-07-13T01:07:15.251Z,79.80
2018-07-13T01:09:19.913Z,79.60
2018-07-13T01:11:25.386Z,79.30
2018-07-13T01:13:29.286Z,79.20
2018-07-13T01:15:33.237Z,79.30
2018-07-13T01:17:37.167Z,79.40
2018-07-13T01:19:41.146Z,79.10
2018-07-13T01:21:45.025Z,79.20
2018-07-13T01:23:49.463Z,79.20
2018-07-13T01:25:53.393Z,79.10
2018-07-13T01:27:57.411Z,79.10
2018-07-13T01:30:04.100Z,79.20
2018-07-13T01:32:07.990Z,79.40
2018-07-13T01:34:11.922Z,79.60
2018-07-13T01:36:16.414Z,79.40
2018-07-13T01:38:20.337Z,79.20
2018-07-13T01:40:24.289Z,79.20
2018-07-13T01:42:28.170Z,79.20
2018-07-13T01:44:32.163Z,79.30
2018-07-13T01:46:36.319Z,79.40
2018-07-13T01:48:40.575Z,79.60
2018-07-13T01:50:45.143Z,80.30
2018-07-13T01:52:49.049Z,80.20
2018-07-13T01:54:53.058Z,79.90
2018-07-13T01:56:57.458Z,80.30
2018-07-13T01:59:02.168Z,79.90
2018-07-13T02:01:06.244Z,80.20
2018-07-13T02:03:11.684Z,80.10
2018-07-13T02:07:19.928Z,80.00
2018-07-13T02:09:24.169Z,80.00
2018-07-13T02:11:28.107Z,79.90
2018-07-13T02:13:32.058Z,80.80
2018-07-13T02:15:36.240Z,82.10
2018-07-13T02:17:40.217Z,83.00
2018-07-13T02:19:44.171Z,83.40
2018-07-13T02:21:48.120Z,83.90
2018-07-13T02:23:52.076Z,84.30
2018-07-13T02:25:56.027Z,84.90
2018-07-13T02:28:00.339Z,85.40
2018-07-13T02:30:06.560Z,86.20
2018-07-13T02:32:10.610Z,85.90
2018-07-13T02:34:14.595Z,85.60
2018-07-13T02:36:18.507Z,86.20
2018-07-13T02:38:22.402Z,85.70
2018-07-13T02:40:26.641Z,85.50
2018-07-13T02:42:31.782Z,86.10
2018-07-13T02:44:35.858Z,85.60
2018-07-13T02:46:39.826Z,85.40
2018-07-13T02:48:44.348Z,85.50
2018-07-13T02:50:48.320Z,85.30
2018-07-13T02:52:54.050Z,85.90
2018-07-13T02:54:58.025Z,85.90
2018-07-13T02:57:01.926Z,85.90
2018-07-13T02:59:05.953Z,86.10
2018-07-13T03:03:14.914Z,86.00
2018-07-13T03:05:19.680Z,86.10
2018-07-13T03:07:23.624Z,86.80
2018-07-13T03:09:28.319Z,87.50
2018-07-13T03:11:32.402Z,87.40
2018-07-13T03:13:36.456Z,88.80
2018-07-13T03:15:41.781Z,89.50
2018-07-13T03:17:45.978Z,90.00
2018-07-13T03:19:50.052Z,90.30
2018-07-13T03:21:56.742Z,90.50
2018-07-13T03:24:02.255Z,91.00
2018-07-13T03:26:06.839Z,90.80
2018-07-13T03:28:11.265Z,90.80
2018-07-13T03:32:21.395Z,90.40
2018-07-13T03:34:25.420Z,90.20
2018-07-13T03:36:29.306Z,90.50
2018-07-13T03:38:33.289Z,90.50
2018-07-13T03:40:37.715Z,90.30
2018-07-13T03:42:41.664Z,90.40
2018-07-13T03:44:45.826Z,89.90
2018-07-13T03:46:49.882Z,88.80
2018-07-13T03:48:53.896Z,88.80
2018-07-13T03:50:58.021Z,88.30
2018-07-13T03:53:02.433Z,88.10
2018-07-13T03:55:06.475Z,88.80
2018-07-13T03:57:10.426Z,89.30
2018-07-13T03:59:14.798Z,89.50
2018-07-13T04:01:19.409Z,89.80
2018-07-13T04:03:23.311Z,90.00
2018-07-13T04:05:27.588Z,89.20
2018-07-13T04:07:31.514Z,88.10
2018-07-13T04:09:36.881Z,89.10
2018-07-13T04:11:43.441Z,88.70
2018-07-13T04:13:47.456Z,88.30
2018-07-13T04:15:51.455Z,87.00
2018-07-13T04:17:55.710Z,86.10
2018-07-13T04:19:59.632Z,85.40
2018-07-13T04:22:03.886Z,84.70
2018-07-13T04:24:08.305Z,83.90
2018-07-13T04:26:12.304Z,83.60
2018-07-13T04:28:17.134Z,82.80
2018-07-13T04:30:22.235Z,83.10
2018-07-13T04:32:27.202Z,84.10
2018-07-13T04:34:31.117Z,85.20
2018-07-13T04:36:35.548Z,85.10
2018-07-13T04:38:39.569Z,84.20
2018-07-13T04:40:43.543Z,82.90
2018-07-13T04:42:47.475Z,81.70
2018-07-13T04:44:51.463Z,81.00
2018-07-13T04:46:55.474Z,80.70
2018-07-13T04:49:04.100Z,80.60
2018-07-13T04:51:08.342Z,80.70
2018-07-13T04:53:13.098Z,80.80
2018-07-13T04:55:18.632Z,80.50
2018-07-13T04:57:23.560Z,80.30
2018-07-13T04:59:27.594Z,81.00
2018-07-13T05:01:32.015Z,81.60
2018-07-13T05:03:36.013Z,81.60
2018-07-13T05:05:39.925Z,82.10
2018-07-13T05:07:47.150Z,81.10
2018-07-13T05:09:51.176Z,81.00
2018-07-13T05:12:00.490Z,81.10
2018-07-13T05:14:06.282Z,81.20
2018-07-13T05:16:11.125Z,81.10
2018-07-13T05:18:17.277Z,80.80
2018-07-13T05:20:21.246Z,81.10
2018-07-13T05:22:25.552Z,81.20
2018-07-13T05:24:30.667Z,80.70
2018-07-13T05:26:37.725Z,80.60
2018-07-13T05:28:48.533Z,81.10
2018-07-13T05:30:53.113Z,81.40
2018-07-13T05:32:58.028Z,81.10
2018-07-13T05:35:03.387Z,81.00
2018-07-13T05:37:08.843Z,81.00
2018-07-13T05:39:13.556Z,81.10
2018-07-13T05:41:17.547Z,81.40
2018-07-13T05:43:21.592Z,81.90
2018-07-13T05:45:27.685Z,82.50
2018-07-13T05:47:33.455Z,82.50
2018-07-13T05:49:39.162Z,82.50
2018-07-13T05:51:43.238Z,82.20
2018-07-13T05:53:49.668Z,82.00
2018-07-13T05:55:54.358Z,81.60
2018-07-13T05:58:16.412Z,81.40
2018-07-13T06:00:21.566Z,80.30
2018-07-13T06:02:25.585Z,80.50
2018-07-13T06:04:29.913Z,80.20
2018-07-13T06:06:43.343Z,79.70
2018-07-13T06:08:47.344Z,79.40
2018-07-13T06:11:04.303Z,78.90
2018-07-13T06:13:08.578Z,78.00
2018-07-13T06:15:13.681Z,77.50
2018-07-13T06:17:22.722Z,77.10
2018-07-13T06:19:30.236Z,76.40
2018-07-13T06:21:35.134Z,76.60
2018-07-13T06:23:46.486Z,75.60
2018-07-13T06:25:55.606Z,74.40
2018-07-13T06:28:00.399Z,73.10
2018-07-13T06:30:06.585Z,72.20
2018-07-13T06:32:11.340Z,70.80
2018-07-13T06:34:15.756Z,69.60
2018-07-13T06:36:19.733Z,68.80
2018-07-13T06:38:25.398Z,67.40
2018-07-13T06:40:31.851Z,66.70
2018-07-13T06:42:37.340Z,65.00
2018-07-13T06:46:47.889Z,61.80
2018-07-13T06:49:04.932Z,60.20
2018-07-13T06:51:09.617Z,58.30
2018-07-13T06:53:19.377Z,57.00
2018-07-13T06:55:27.079Z,55.20
2018-07-13T06:57:42.982Z,55.50
2018-07-13T06:59:46.906Z,54.30
2018-07-13T07:01:56.832Z,54.40
2018-07-13T07:04:35.765Z,53.80
2018-07-13T07:06:40.836Z,53.70
2018-07-13T07:08:47.025Z,52.70
2018-07-13T07:10:51.431Z,52.80
2018-07-13T07:13:08.115Z,52.50
2018-07-13T07:15:16.311Z,52.70
2018-07-13T07:17:24.405Z,52.80
2018-07-13T07:19:28.901Z,51.80
2018-07-13T07:21:33.178Z,50.80
2018-07-13T07:23:46.601Z,50.90
2018-07-13T07:25:54.986Z,50.70
2018-07-13T07:27:59.635Z,50.20
2018-07-13T07:32:52.865Z,49.00
2018-07-13T07:34:57.793Z,49.30
2018-07-13T07:37:10.801Z,49.20
2018-07-13T07:39:23.980Z,48.70
2018-07-13T07:41:32.591Z,48.70
2018-07-13T07:43:40.205Z,49.20
2018-07-13T07:45:51.074Z,49.10
2018-07-13T07:48:21.097Z,49.70
2018-07-13T07:50:30.730Z,49.40
2018-07-13T07:52:34.829Z,49.20
2018-07-13T07:54:38.770Z,48.90
2018-07-13T07:58:49.705Z,49.30
2018-07-13T08:00:53.651Z,49.20
2018-07-13T08:02:57.868Z,49.30
2018-07-13T08:05:07.651Z,49.20
2018-07-13T08:07:15.280Z,48.80
2018-07-13T08:09:28.132Z,48.00
2018-07-13T08:11:34.301Z,48.50
2018-07-13T08:13:42.255Z,48.10
2018-07-13T08:16:29.460Z,48.10
2018-07-13T08:18:36.540Z,47.80
2018-07-13T08:20:48.107Z,48.10
2018-07-13T08:22:55.923Z,48.10
2018-07-13T08:25:01.517Z,48.40
2018-07-13T08:27:05.806Z,47.90
2018-07-13T08:29:10.251Z,48.90
2018-07-13T08:31:14.435Z,48.10
2018-07-13T08:33:19.986Z,48.50
2018-07-13T08:35:29.245Z,49.00
2018-07-13T08:37:36.719Z,48.70
2018-07-13T08:39:42.375Z,47.30
2018-07-13T08:41:47.239Z,47.10
2018-07-13T08:43:52.770Z,46.30
2018-07-13T08:45:59.615Z,46.20
2018-07-13T08:48:07.786Z,45.70
2018-07-13T08:50:16.710Z,46.80
2018-07-13T08:52:27.348Z,46.90
2018-07-13T08:54:32.153Z,46.80
2018-07-13T08:56:37.802Z,46.10
2018-07-13T08:58:42.448Z,45.30
2018-07-13T09:00:53.572Z,44.60
2018-07-13T09:02:57.414Z,44.60
2018-07-13T09:05:02.374Z,44.60
2018-07-13T09:07:07.717Z,43.70
2018-07-13T09:09:17.688Z,43.30
2018-07-13T09:11:42.316Z,42.70
2018-07-13T09:13:46.264Z,42.40
2018-07-13T09:18:30.411Z,42.50
2018-07-13T09:20:36.414Z,42.80
2018-07-13T09:22:41.884Z,43.10
2018-07-13T09:24:48.084Z,43.00
2018-07-13T09:27:06.279Z,42.20
2018-07-13T09:29:13.163Z,41.50
2018-07-13T09:31:17.560Z,40.80
2018-07-13T09:33:24.791Z,39.70
2018-07-13T09:35:29.384Z,39.50
2018-07-13T09:37:38.451Z,39.70
2018-07-13T09:39:45.321Z,40.20
2018-07-13T09:41:50.261Z,39.60
2018-07-13T09:43:56.502Z,39.10
2018-07-13T09:46:01.326Z,39.50
2018-07-13T09:51:13.105Z,41.10
2018-07-13T09:53:30.596Z,42.50
2018-07-13T09:55:59.261Z,42.60
2018-07-13T09:58:20.305Z,42.50
2018-07-13T10:01:23.761Z,41.50
2018-07-13T10:03:39.638Z,40.80
2018-07-13T10:05:45.638Z,40.70
2018-07-13T10:07:54.607Z,41.20
2018-07-13T10:10:01.000Z,41.40
2018-07-13T10:12:09.271Z,41.80
2018-07-13T10:14:15.594Z,41.00
2018-07-13T10:16:19.742Z,41.60
2018-07-13T10:18:23.663Z,42.40
2018-07-13T10:20:30.430Z,42.00
2018-07-13T10:22:35.224Z,40.60
2018-07-13T10:26:45.794Z,40.00
2018-07-13T10:28:50.903Z,40.10
2018-07-13T10:30:57.402Z,40.20
2018-07-13T10:33:03.711Z,39.60
2018-07-13T10:35:11.580Z,38.50
2018-07-13T10:37:18.471Z,38.10
2018-07-13T10:39:23.207Z,38.00
2018-07-13T10:41:27.945Z,38.70
2018-07-13T10:43:31.937Z,38.20
2018-07-13T10:45:38.202Z,38.20
2018-07-13T10:47:42.427Z,38.40
2018-07-13T10:49:46.340Z,38.60
2018-07-13T10:51:54.478Z,38.60
2018-07-13T10:53:59.350Z,39.10
2018-07-13T10:56:03.262Z,39.00
2018-07-13T10:58:07.162Z,38.70
2018-07-13T11:00:14.906Z,37.60
2018-07-13T11:02:20.765Z,36.80
2018-07-13T11:04:24.701Z,36.60
2018-07-13T11:06:30.392Z,35.90
2018-07-13T11:08:34.986Z,35.60
2018-07-13T11:10:50.352Z,35.80
2018-07-13T11:12:56.522Z,35.40
2018-07-13T11:15:01.111Z,34.80
2018-07-13T11:17:05.715Z,34.30
2018-07-13T11:19:10.628Z,34.20
2018-07-13T11:21:16.775Z,33.90
2018-07-13T11:23:22.233Z,33.90
2018-07-13T11:25:26.919Z,33.60
2018-07-13T11:27:35.221Z,34.00
2018-07-13T11:29:39.974Z,34.60
2018-07-13T11:31:44.065Z,34.70
2018-07-13T11:33:49.463Z,35.50
2018-07-13T11:35:56.289Z,35.30
2018-07-13T11:38:05.735Z,36.30
2018-07-13T11:40:10.058Z,37.00
2018-07-13T11:42:15.088Z,37.70
2018-07-13T11:44:19.074Z,37.80
2018-07-13T11:46:24.705Z,37.90
2018-07-13T11:48:29.947Z,37.40
2018-07-13T11:50:35.417Z,36.70
2018-07-13T11:52:40.014Z,37.00
2018-07-13T11:54:43.920Z,35.90
2018-07-13T11:56:48.293Z,36.00
2018-07-13T11:58:52.186Z,35.70
2018-07-13T12:00:56.876Z,35.80
2018-07-13T12:03:01.834Z,35.50
2018-07-13T12:05:06.677Z,34.80
2018-07-13T12:07:10.988Z,35.00
2018-07-13T12:09:17.756Z,35.10
2018-07-13T12:11:51.469Z,34.60
2018-07-13T12:14:54.136Z,33.90
2018-07-13T12:21:38.318Z,34.40
2018-07-13T12:23:48.002Z,34.10
2018-07-13T12:26:43.787Z,34.10
2018-07-13T12:29:11.051Z,34.80
2018-07-13T12:35:36.337Z,33.30
2018-07-13T12:37:50.834Z,32.20
2018-07-13T12:40:07.784Z,31.50
2018-07-13T12:42:19.421Z,30.70
2018-07-13T12:44:26.522Z,29.90
2018-07-13T12:46:36.487Z,29.30
2018-07-13T12:48:44.503Z,28.70
2018-07-13T12:51:00.745Z,28.80
2018-07-13T12:53:06.390Z,29.10
2018-07-13T12:55:12.495Z,29.50
2018-07-13T12:57:19.177Z,29.60
2018-07-13T12:59:39.648Z,29.30
2018-07-13T13:01:59.987Z,29.70
2018-07-13T13:04:17.497Z,29.40
2018-07-13T13:06:32.869Z,28.80
2018-07-13T13:21:26.987Z,28.50
2018-07-13T13:26:02.361Z,33.20
2018-07-13T13:28:20.146Z,32.90
2018-07-13T13:30:32.236Z,32.80
2018-07-13T13:32:42.238Z,32.50
2018-07-13T13:34:48.286Z,32.50
2018-07-13T13:36:53.067Z,32.30
2018-07-13T13:38:59.389Z,32.10
2018-07-13T13:41:06.028Z,32.10
2018-07-13T13:43:11.391Z,31.90
2018-07-13T13:45:16.860Z,31.90
2018-07-13T13:47:22.962Z,31.80
2018-07-13T13:49:28.414Z,31.70
2018-07-13T13:51:34.067Z,32.00
2018-07-13T13:53:40.439Z,32.10
2018-07-13T13:55:45.854Z,32.20
2018-07-13T13:57:51.361Z,32.70
2018-07-13T13:59:56.575Z,33.40
2018-07-13T14:02:07.828Z,33.60
2018-07-13T14:06:26.131Z,34.80
2018-07-13T14:08:32.780Z,35.30
2018-07-13T14:10:38.546Z,35.40
2018-07-13T14:12:46.429Z,38.30
2018-07-13T14:14:56.544Z,40.70
2018-07-13T14:19:13.307Z,48.50
2018-07-13T14:21:18.514Z,50.20
2018-07-13T14:25:28.258Z,59.00
2018-07-13T14:27:34.429Z,57.90
2018-07-13T14:29:38.778Z,60.80
2018-07-13T14:31:44.436Z,60.00
2018-07-13T14:33:49.481Z,61.60
2018-07-13T14:35:56.148Z,61.60
2018-07-13T14:38:00.366Z,59.50
2018-07-13T14:40:05.101Z,59.20
2018-07-13T14:42:11.543Z,58.80
2018-07-13T14:44:19.372Z,57.30
2018-07-13T14:46:23.702Z,59.90
2018-07-13T14:48:29.625Z,57.20
2018-07-13T14:50:34.178Z,58.20
2018-07-13T14:52:41.691Z,51.90
2018-07-13T14:54:47.306Z,52.60
2018-07-13T14:56:53.631Z,52.80
2018-07-13T14:58:59.394Z,52.90
2018-07-13T15:01:05.891Z,51.20
2018-07-13T15:03:11.130Z,51.10
2018-07-13T15:05:16.539Z,51.30
2018-07-13T15:07:21.223Z,51.50
2018-07-13T15:09:26.752Z,52.20
2018-07-13T15:11:31.666Z,51.70
2018-07-13T15:13:40.261Z,50.20
2018-07-13T15:15:44.125Z,49.80
2018-07-13T15:17:51.529Z,49.30
2018-07-13T15:22:04.728Z,50.60
2018-07-13T15:24:09.607Z,51.70
2018-07-13T15:26:15.699Z,52.00
2018-07-13T15:28:22.383Z,50.80
2018-07-13T15:30:30.252Z,50.20
2018-07-13T15:32:38.754Z,50.60
2018-07-13T15:34:44.956Z,48.50
2018-07-13T15:36:51.376Z,48.00
2018-07-13T15:38:55.326Z,47.80
2018-07-13T15:43:03.710Z,45.50
2018-07-13T15:45:08.218Z,44.60
2018-07-13T15:47:13.977Z,43.00
2018-07-13T15:49:21.447Z,44.30
2018-07-13T15:51:43.015Z,44.70
2018-07-13T15:53:48.012Z,45.10
2018-07-13T15:55:58.926Z,44.90
2018-07-13T16:00:07.422Z,42.20
2018-07-13T16:02:15.683Z,41.10
2018-07-13T16:04:19.638Z,41.80
2018-07-13T16:06:28.526Z,41.50
2018-07-13T16:08:33.935Z,41.00
2018-07-13T16:10:38.597Z,41.20
2018-07-13T16:12:45.846Z,40.90
2018-07-13T16:14:53.766Z,42.20
2018-07-13T16:16:58.414Z,43.00
2018-07-13T16:19:02.387Z,43.70
2018-07-13T16:21:11.295Z,46.20
2018-07-13T16:23:17.365Z,47.10
2018-07-13T16:27:28.833Z,49.50
2018-07-13T16:29:33.838Z,50.00
2018-07-13T16:31:38.093Z,51.30
2018-07-13T16:33:44.232Z,52.60
2018-07-13T16:35:48.255Z,53.10
2018-07-13T16:37:53.197Z,53.20
2018-07-13T16:39:59.540Z,53.20
2018-07-13T16:42:08.510Z,53.00
2018-07-13T16:44:12.510Z,52.80
2018-07-13T16:46:17.856Z,51.30
2018-07-13T16:48:22.613Z,48.40
2018-07-13T16:50:29.305Z,47.20
2018-07-13T16:52:33.185Z,45.50
2018-07-13T16:54:40.369Z,43.90
2018-07-13T16:56:47.150Z,42.60
2018-07-13T16:58:53.825Z,42.60
2018-07-13T17:00:57.916Z,39.30
2018-07-13T17:03:02.314Z,38.10
2018-07-13T17:05:09.609Z,39.60
2018-07-13T17:07:16.559Z,42.00
2018-07-13T17:09:21.245Z,42.80
2018-07-13T17:13:33.968Z,44.90
2018-07-13T17:15:39.386Z,45.30
2018-07-13T17:17:45.443Z,45.70
2018-07-13T17:19:52.506Z,45.90
2018-07-13T17:21:57.058Z,46.00
2018-07-13T17:24:01.588Z,45.90
2018-07-13T17:26:06.973Z,45.90
2018-07-13T17:28:10.905Z,46.60
2018-07-13T17:30:16.163Z,47.20
2018-07-13T17:32:20.831Z,47.80
2018-07-13T17:34:25.433Z,48.40
2018-07-13T17:36:29.423Z,49.30
2018-07-13T17:38:33.750Z,49.70
2018-07-13T17:40:39.098Z,49.70
2018-07-13T17:42:44.869Z,50.10
2018-07-13T17:44:49.363Z,50.40
2018-07-13T17:46:54.934Z,50.90
2018-07-13T17:48:59.536Z,51.40
2018-07-13T17:51:06.423Z,51.90
2018-07-13T17:53:12.656Z,52.30
2018-07-13T17:55:17.540Z,53.00
2018-07-13T17:57:21.921Z,53.60
2018-07-13T17:59:28.052Z,53.40
2018-07-13T18:03:37.391Z,52.30
2018-07-13T18:05:41.391Z,51.70
2018-07-13T18:07:45.551Z,51.70
2018-07-13T18:09:49.925Z,50.70
2018-07-13T18:11:53.933Z,51.50
2018-07-13T18:13:58.443Z,51.20
2018-07-13T18:16:04.217Z,50.90
2018-07-13T18:18:09.810Z,50.00
2018-07-13T18:20:13.749Z,49.00
2018-07-13T18:22:19.522Z,48.80
2018-07-13T18:24:25.388Z,48.80
2018-07-13T18:26:30.782Z,48.30
2018-07-13T18:28:37.019Z,48.00
2018-07-13T18:30:41.029Z,47.90
2018-07-13T18:32:46.689Z,47.70
2018-07-13T18:34:50.966Z,47.80
2018-07-13T18:36:57.475Z,47.50
2018-07-13T18:39:02.386Z,47.50
2018-07-13T18:41:06.331Z,47.60
2018-07-13T18:43:11.358Z,47.70
2018-07-13T18:47:21.186Z,47.70
2018-07-13T18:49:27.594Z,47.70
2018-07-13T18:51:31.506Z,48.20
2018-07-13T18:53:36.612Z,48.70
2018-07-13T18:55:40.527Z,48.70
2018-07-13T18:57:45.693Z,48.80
2018-07-13T18:59:49.734Z,49.30
2018-07-13T19:01:55.158Z,49.40
2018-07-13T19:04:04.335Z,49.50
2018-07-13T19:06:11.184Z,49.40
2018-07-13T19:08:16.427Z,49.70
2018-07-13T19:10:30.159Z,50.00
2018-07-13T19:12:36.122Z,50.70
2018-07-13T19:14:41.988Z,51.30
2018-07-13T19:18:54.710Z,51.60
2018-07-13T19:20:58.705Z,52.00
2018-07-13T19:23:07.118Z,52.90
2018-07-13T19:25:17.666Z,53.30
2018-07-13T19:27:22.836Z,53.50
2018-07-13T19:29:29.322Z,53.50
2018-07-13T19:31:35.686Z,53.60
2018-07-13T19:33:40.320Z,53.90
2018-07-13T19:35:45.320Z,53.90
2018-07-13T19:37:53.280Z,54.00
2018-07-13T19:39:58.305Z,54.30
2018-07-13T19:42:05.354Z,54.50
2018-07-13T19:44:13.309Z,54.70
2018-07-13T19:46:18.591Z,54.60
2018-07-13T19:48:23.534Z,55.10
2018-07-13T19:50:31.393Z,55.30
2018-07-13T19:52:35.653Z,55.10
2018-07-13T19:54:45.066Z,55.40
2018-07-13T19:56:52.664Z,56.40
2018-07-13T19:58:58.581Z,57.00
2018-07-13T20:01:13.822Z,57.30
2018-07-13T20:03:23.307Z,57.30
2018-07-13T20:05:28.208Z,57.00
2018-07-13T20:07:39.354Z,56.80
2018-07-13T20:09:48.503Z,57.00
2018-07-13T20:11:59.574Z,56.60
2018-07-13T20:14:10.306Z,56.10
2018-07-13T20:18:29.512Z,55.10
2018-07-13T20:20:35.358Z,55.00
2018-07-13T20:22:43.818Z,56.30
2018-07-13T20:24:52.397Z,57.50
2018-07-13T20:26:58.628Z,57.40
2018-07-13T20:29:06.890Z,57.70
2018-07-13T20:31:20.118Z,57.80
2018-07-13T20:33:25.301Z,58.20
2018-07-13T20:35:31.283Z,57.50
2018-07-13T20:37:37.126Z,57.10
2018-07-13T20:39:41.327Z,57.40
2018-07-13T20:44:06.889Z,58.60
2018-07-13T20:46:13.719Z,59.20
2018-07-13T20:48:21.207Z,59.20
2018-07-13T20:50:26.045Z,59.10
2018-07-13T20:52:31.292Z,59.80
2018-07-13T20:54:36.634Z,59.30
2018-07-13T20:56:49.494Z,60.10
2018-07-13T20:58:53.429Z,60.20
2018-07-13T21:00:58.415Z,59.90
2018-07-13T21:03:04.607Z,60.50
2018-07-13T21:05:12.956Z,60.30
2018-07-13T21:07:17.631Z,60.80
2018-07-13T21:09:28.663Z,61.10
2018-07-13T21:11:33.243Z,61.20
2018-07-13T21:13:37.588Z,61.40
2018-07-13T21:15:43.542Z,61.50
2018-07-13T21:17:48.357Z,61.50
2018-07-13T21:19:52.295Z,61.50
2018-07-13T21:21:57.190Z,61.70
2018-07-13T21:24:03.429Z,61.80
2018-07-13T21:26:07.474Z,61.90
2018-07-13T21:28:11.706Z,62.00
2018-07-13T21:30:19.488Z,62.00
2018-07-13T21:32:24.689Z,61.90
2018-07-13T21:34:30.031Z,61.90
2018-07-13T21:36:35.823Z,62.00
2018-07-13T21:38:44.018Z,62.10
2018-07-13T21:40:52.701Z,62.00
2018-07-13T21:42:59.998Z,62.00
2018-07-13T21:45:13.487Z,62.00
2018-07-13T21:47:22.428Z,62.10
2018-07-13T21:49:31.227Z,62.40
2018-07-13T21:51:38.426Z,62.40
2018-07-13T21:53:42.348Z,62.30
2018-07-13T21:55:47.051Z,62.60
2018-07-13T21:57:51.310Z,62.70
2018-07-13T21:59:55.474Z,62.70
2018-07-13T22:02:02.002Z,62.70
2018-07-13T22:04:12.268Z,62.70
2018-07-13T22:06:19.695Z,62.90
2018-07-13T22:08:24.265Z,63.10
2018-07-13T22:10:31.203Z,62.80
2018-07-13T22:12:35.231Z,63.00
2018-07-13T22:14:39.758Z,62.90
2018-07-13T22:16:48.278Z,62.60
2018-07-13T22:18:54.135Z,62.70
2018-07-13T22:20:59.290Z,62.60
2018-07-13T22:23:03.618Z,62.80
2018-07-13T22:25:15.614Z,62.70
2018-07-13T22:27:20.670Z,63.00
2018-07-13T22:29:25.978Z,63.00
2018-07-13T22:31:31.526Z,63.20
2018-07-13T22:35:42.013Z,63.30
2018-07-13T22:37:45.985Z,63.40
2018-07-13T22:39:49.954Z,63.40
2018-07-13T22:41:54.474Z,63.40
2018-07-13T22:43:59.467Z,63.40
2018-07-13T22:46:03.370Z,63.40
2018-07-13T22:48:09.266Z,63.40
2018-07-13T22:50:13.154Z,63.60
2018-07-13T22:52:18.882Z,63.60
2018-07-13T22:54:24.350Z,63.70
2018-07-13T22:56:29.477Z,63.90
2018-07-13T22:58:34.488Z,64.00
2018-07-13T23:00:39.731Z,64.00
2018-07-13T23:02:43.703Z,64.00
2018-07-13T23:04:47.656Z,64.00
2018-07-13T23:06:53.406Z,64.20
2018-07-13T23:08:58.169Z,64.20
2018-07-13T23:11:02.353Z,64.30
2018-07-13T23:13:06.784Z,64.30
2018-07-13T23:15:13.925Z,64.30
2018-07-13T23:19:22.693Z,64.60
2018-07-13T23:21:33.066Z,64.60
2018-07-13T23:23:40.623Z,64.80
2018-07-13T23:25:45.822Z,65.70
2018-07-13T23:27:49.814Z,64.90
2018-07-13T23:29:55.771Z,64.80
2018-07-13T23:32:01.242Z,65.10
2018-07-13T23:34:06.623Z,65.20
2018-07-13T23:36:11.203Z,65.10
2018-07-13T23:38:15.163Z,65.10
2018-07-13T23:40:19.506Z,64.90
2018-07-13T23:42:23.575Z,64.80
2018-07-13T23:44:27.931Z,64.70
2018-07-13T23:46:33.653Z,64.80
2018-07-13T23:48:39.401Z,65.20
2018-07-13T23:50:44.547Z,65.30
2018-07-13T23:52:49.430Z,65.20
2018-07-13T23:54:54.154Z,65.00
2018-07-13T23:56:59.463Z,65.10
2018-07-13T23:59:04.114Z,65.00
